createdAt,value
2022-12-12T00:07:16.465Z,9.00
2022-12-12T00:17:43.853Z,10.80
2022-12-12T00:28:11.970Z,7.60
2022-12-12T00:38:39.462Z,10.80
2022-12-12T00:49:06.999Z,8.50
2022-12-12T00:59:34.435Z,10.00
2022-12-12T01:10:01.861Z,11.40
2022-12-12T01:20:30.377Z,9.40
2022-12-12T01:30:57.912Z,9.30
2022-12-12T01:41:25.843Z,8.20
2022-12-12T01:51:56.850Z,9.20
2022-12-12T02:02:24.512Z,10.10
2022-12-12T02:12:52.816Z,8.90
2022-12-12T02:23:45.159Z,7.10
2022-12-12T02:34:19.963Z,7.70
2022-12-12T02:44:55.828Z,8.20
2022-12-12T02:55:24.725Z,8.60
2022-12-12T03:06:27.839Z,7.00
2022-12-12T03:17:07.155Z,7.90
2022-12-12T03:27:41.102Z,8.30
2022-12-12T03:38:14.307Z,6.80
2022-12-12T03:48:46.361Z,8.70
2022-12-12T03:59:16.207Z,8.10
2022-12-12T04:10:01.867Z,8.20
2022-12-12T04:20:58.748Z,7.70
2022-12-12T04:31:30.219Z,7.90
2022-12-12T04:41:58.707Z,8.80
2022-12-12T04:52:27.798Z,9.30
2022-12-12T05:03:02.272Z,10.70
2022-12-12T05:13:34.201Z,7.00
2022-12-12T05:24:02.765Z,10.10
2022-12-12T05:44:56.141Z,8.60
2022-12-12T05:55:23.599Z,9.60
2022-12-12T06:05:51.229Z,8.40
2022-12-12T06:16:21.271Z,9.80
2022-12-12T06:26:48.791Z,10.20
2022-12-12T06:37:17.476Z,8.30
2022-12-12T06:47:45.248Z,9.90
2022-12-12T06:58:12.823Z,12.50
2022-12-12T07:08:40.623Z,11.80
2022-12-12T07:19:08.327Z,14.70
2022-12-12T07:29:36.452Z,11.40
2022-12-12T07:40:04.005Z,12.80
2022-12-12T07:50:31.532Z,10.90
2022-12-12T08:00:59.016Z,12.50
2022-12-12T08:11:27.146Z,11.80
2022-12-12T08:21:55.541Z,14.60
2022-12-12T08:32:23.138Z,13.40
2022-12-12T08:42:50.616Z,13.20
2022-12-12T08:53:18.025Z,11.30
2022-12-12T09:03:45.718Z,13.90
2022-12-12T09:14:13.419Z,14.00
2022-12-12T09:24:41.078Z,14.70
2022-12-12T09:35:09.571Z,15.60
2022-12-12T09:45:39.190Z,14.50
2022-12-12T09:56:12.115Z,17.50
2022-12-12T10:06:47.108Z,18.30
2022-12-12T10:17:19.440Z,14.40
2022-12-12T10:27:47.435Z,15.90
2022-12-12T10:38:33.454Z,17.60
2022-12-12T10:49:01.189Z,15.60
2022-12-12T10:59:28.811Z,15.90
2022-12-12T11:10:01.945Z,18.40
2022-12-12T11:20:30.039Z,17.10
2022-12-12T11:30:58.803Z,17.60
2022-12-12T11:51:53.744Z,16.00
2022-12-12T12:02:57.015Z,40.70
2022-12-12T12:13:40.840Z,15.10
2022-12-12T12:24:28.283Z,16.70
2022-12-12T12:35:08.377Z,13.60
2022-12-12T12:45:46.371Z,15.90
2022-12-12T12:56:26.018Z,17.80
2022-12-12T13:07:00.133Z,12.40
2022-12-12T13:17:40.256Z,12.70
2022-12-12T13:28:12.165Z,13.10
2022-12-12T13:38:41.156Z,16.10
2022-12-12T13:49:29.297Z,12.70
2022-12-12T14:00:23.631Z,12.40
2022-12-12T14:10:59.432Z,11.90
2022-12-12T14:21:41.978Z,15.00
2022-12-12T14:32:37.171Z,21.30
2022-12-12T14:43:20.865Z,17.00
2022-12-12T14:53:52.848Z,26.10
2022-12-12T15:04:22.378Z,15.60
2022-12-12T15:14:58.104Z,20.90
2022-12-12T15:25:27.983Z,17.10
2022-12-12T15:36:01.882Z,16.30
2022-12-12T15:46:31.609Z,16.80
2022-12-12T15:56:59.086Z,16.10
2022-12-12T16:07:26.832Z,21.20
2022-12-12T16:18:06.864Z,17.30
2022-12-12T16:28:34.493Z,16.50
2022-12-12T16:39:01.895Z,16.30
2022-12-12T16:49:29.652Z,12.50
2022-12-12T16:59:57.084Z,10.60
2022-12-12T17:10:26.760Z,8.30
2022-12-12T17:20:54.261Z,8.90
2022-12-12T17:31:21.941Z,8.30
2022-12-12T17:41:49.358Z,7.80
2022-12-12T17:52:16.929Z,6.20
2022-12-12T18:02:44.587Z,7.70
2022-12-12T18:13:12.071Z,5.70
2022-12-12T18:23:39.556Z,5.30
2022-12-12T18:34:08.427Z,6.60
2022-12-12T18:44:36.249Z,5.70
2022-12-12T18:55:04.049Z,6.40
2022-12-12T19:05:31.425Z,7.20
2022-12-12T19:16:03.631Z,6.10
2022-12-12T19:26:32.200Z,8.50
2022-12-12T19:36:59.568Z,5.80
2022-12-12T19:47:27.518Z,6.80
2022-12-12T19:57:54.907Z,6.20
2022-12-12T20:08:22.468Z,6.40
2022-12-12T20:18:50.712Z,6.80
2022-12-12T20:29:18.484Z,5.00
2022-12-12T20:39:45.945Z,5.60
2022-12-12T20:50:14.042Z,6.20
2022-12-12T21:00:41.931Z,6.20
2022-12-12T21:11:09.768Z,4.80
2022-12-12T21:21:37.354Z,5.70
2022-12-12T21:32:04.847Z,7.60
2022-12-12T21:42:32.448Z,10.10
2022-12-12T21:53:17.563Z,8.20
2022-12-12T22:03:45.662Z,11.20
2022-12-12T22:14:13.493Z,10.00
2022-12-12T22:24:41.062Z,11.60
2022-12-12T22:35:09.973Z,8.00
2022-12-12T22:45:38.241Z,7.20
2022-12-12T22:56:05.748Z,10.30
2022-12-12T23:06:34.992Z,8.90
2022-12-12T23:17:02.404Z,7.90
2022-12-12T23:27:29.889Z,8.70
2022-12-12T23:37:57.323Z,7.40
2022-12-12T23:48:24.835Z,7.10
2022-12-12T23:58:52.491Z,7.60
